Lentokenttä METAR

 

EFHK - Helsinki/Vantaa
Etäisyys sääasemasta: IKO 36km
Päivitetty: 27/06/2017 11:50
Melko pilvistä
Melko pilvistä
 Tuulen suunta L
Tuuli: L 5 m/s
Lämpötila: 14°C
Kastepiste: 9°C
Kosteus: 72%
Ilmanpaine: 999 hPa
Pilvisyys: Melko pilvistä
Näkyvyys: 10 km
Pilviraja: Melko selkeää 732 m
Melko pilvistä 1676 m
2017/06/27 08:50 EFHK 270850Z 26010KT 9999 SCT024 BKN055 14/09 Q0999 NOSIG
EETN - Tallinn, Estonia
Etäisyys sääasemasta: EKA 97km
Päivitetty: 27/06/2017 11:50
Pilvistä
Pilvistä
 Tuulen suunta L
Tuuli: L 10 m/s
Lämpötila: 14°C
Kastepiste: 8°C
Kosteus: 67%
Ilmanpaine: 1001 hPa
Pilvisyys: Pilvistä
Näkyvyys: 10 km
Pilviraja: Pilvistä 884 m
2017/06/27 08:50 EETN 270850Z 26020KT 9999 OVC029 14/08 Q1001 NOSIG
 
EFTU - Turku
Etäisyys sääasemasta: LLU 119km
Päivitetty: 27/06/2017 11:50
Pilvistä
Pilvistä
 Tuulen suunta L
Tuuli: L 7 m/s
Lämpötila: 13°C
Kastepiste: 8°C
Kosteus: 72%
Ilmanpaine: 1000 hPa
Pilvisyys: Pilvistä
Näkyvyys: 10 km
Pilviraja: Melko selkeää 579 m
Pilvistä 1036 m
2017/06/27 08:50 EFTU 270850Z AUTO 27014KT 9999 SCT019/// OVC034/// 13/08 Q1000
EFLP - Lappeenranta
Etäisyys sääasemasta: IKO 227km
Päivitetty: 27/06/2017 11:20
Melko selkeää
Melko selkeää
 Tuulen suunta LLO
Tuuli: LLO 5 m/s
Lämpötila: 13°C
Kastepiste: 10°C
Kosteus: 82%
Ilmanpaine: 995 hPa
Pilvisyys: Melko selkeää
Näkyvyys: 10 km
Pilviraja: Melko selkeää 396 m
Melko selkeää 457 m
2017/06/27 08:20 EFLP 270820Z AUTO 25010KT 220V290 9999 FEW013 SCT015 13/10 Q0995
 
EFJY - Jyvaskylä
Etäisyys sääasemasta: PKO 253km
Päivitetty: 27/06/2017 11:20
Melko selkeää
Melko selkeää
 Tuulen suunta L
Tuuli: L 4 m/s
Lämpötila: 15°C
Kastepiste: 8°C
Kosteus: 63%
Ilmanpaine: 995 hPa
Pilvisyys: Melko selkeää
Näkyvyys: 10 km
Pilviraja: Melko selkeää 945 m
Melko selkeää 1219 m
2017/06/27 08:20 EFJY 270820Z 27007KT 230V320 9999 SCT031TCU SCT040 15/08 Q0995
EFSA - Savonlinna
Etäisyys sääasemasta: KO 313km
Päivitetty: 27/06/2017 11:20
Melko selkeää
Melko selkeää
 Tuulen suunta L
Tuuli: L 4 m/s
Lämpötila: 14°C
Kastepiste: 9°C
Kosteus: 72%
Ilmanpaine: 994 hPa
Pilvisyys: Melko selkeää
Näkyvyys: 10 km
Pilviraja: Melko selkeää 701 m
Melko selkeää 2225 m
2017/06/27 08:20 EFSA 270820Z AUTO 27008KT 230V310 9999 FEW023 SCT073 14/09 Q0994
 
ESSA - Stockholm/Arlanda, Sweden
Etäisyys sääasemasta: L 363km
Päivitetty: 27/06/2017 11:20
Melko selkeää
Melko selkeää
 Tuulen suunta L
Tuuli: L 6 m/s
Lämpötila: 14°C
Kastepiste: 5°C
Kosteus: 55%
Ilmanpaine: 1004 hPa
Pilvisyys: Melko selkeää
Näkyvyys: 10 km
Pilviraja: Melko selkeää 1189 m
2017/06/27 08:20 ESSA 270820Z 28011KT 240V310 9999 SCT039 14/05 Q1004 NOSIG
ESGG - Göteborg, Sweden
Etäisyys sääasemasta: LO 900km
Päivitetty: 27/06/2017 11:20
Selkeää
Selkeää
 Tuulen suunta P
Tuuli: P 2 m/s
Lämpötila: 15°C
Kastepiste: 7°C
Kosteus: 59%
Ilmanpaine: 1009 hPa
Yhteenveto: Selkeää
Näkyvyys: Suurempi kuin 10 km
2017/06/27 08:20 ESGG 270820Z 36004KT 310V060 CAVOK 15/07 Q1009
 
ENGM - Oslo, Norway
Etäisyys sääasemasta: L 950km
Päivitetty: 27/06/2017 11:20
Selkeää
Selkeää
 Tuulen suunta PKO
Tuuli: PKO 6 m/s
Lämpötila: 13°C
Kastepiste: -3°C
Kosteus: 33%
Ilmanpaine: 1009 hPa
Yhteenveto: Selkeää
Näkyvyys: Suurempi kuin 10 km
2017/06/27 08:20 ENGM 270820Z 02012KT 330V050 CAVOK 13/M03 Q1009 NOSIG